sensor_id;sensor_type;location;lat;lon;timestamp;temperature;humidity
3701;DHT22;1866;48.374;10.766;2023-04-25T00:01:40;5.10;1.00
3701;DHT22;1866;48.374;10.766;2023-04-25T00:04:07;5.20;1.00
3701;DHT22;1866;48.374;10.766;2023-04-25T00:06:34;5.40;1.00
3701;DHT22;1866;48.374;10.766;2023-04-25T00:09:03;5.30;1.00
3701;DHT22;1866;48.374;10.766;2023-04-25T00:11:33;5.30;1.00
3701;DHT22;1866;48.374;10.766;2023-04-25T00:14:00;5.20;1.00
3701;DHT22;1866;48.374;10.766;2023-04-25T00:16:27;5.10;1.00
3701;DHT22;1866;48.374;10.766;2023-04-25T00:18:54;5.30;1.00
3701;DHT22;1866;48.374;10.766;2023-04-25T00:21:22;5.30;1.00
3701;DHT22;1866;48.374;10.766;2023-04-25T00:23:49;5.40;1.00
3701;DHT22;1866;48.374;10.766;2023-04-25T00:26:18;5.30;1.00
3701;DHT22;1866;48.374;10.766;2023-04-25T00:28:46;5.20;1.00
3701;DHT22;1866;48.374;10.766;2023-04-25T00:31:13;5.20;1.00
3701;DHT22;1866;48.374;10.766;2023-04-25T00:33:40;5.30;1.00
3701;DHT22;1866;48.374;10.766;2023-04-25T00:36:07;5.20;1.00
3701;DHT22;1866;48.374;10.766;2023-04-25T00:38:34;5.30;1.00
3701;DHT22;1866;48.374;10.766;2023-04-25T00:41:01;5.30;1.00
3701;DHT22;1866;48.374;10.766;2023-04-25T00:43:30;5.30;1.00
3701;DHT22;1866;48.374;10.766;2023-04-25T00:46:00;5.30;1.00
3701;DHT22;1866;48.374;10.766;2023-04-25T00:48:27;5.30;1.00
3701;DHT22;1866;48.374;10.766;2023-04-25T00:50:56;5.20;1.00
3701;DHT22;1866;48.374;10.766;2023-04-25T00:53:25;5.30;1.00
3701;DHT22;1866;48.374;10.766;2023-04-25T00:55:52;5.20;1.00
3701;DHT22;1866;48.374;10.766;2023-04-25T00:58:20;5.10;1.00
3701;DHT22;1866;48.374;10.766;2023-04-25T01:00:50;4.90;1.00
3701;DHT22;1866;48.374;10.766;2023-04-25T01:03:17;4.70;1.00
3701;DHT22;1866;48.374;10.766;2023-04-25T01:05:46;4.60;1.00
3701;DHT22;1866;48.374;10.766;2023-04-25T01:08:13;4.80;1.00
3701;DHT22;1866;48.374;10.766;2023-04-25T01:10:40;4.60;1.00
3701;DHT22;1866;48.374;10.766;2023-04-25T01:13:07;4.50;1.00
3701;DHT22;1866;48.374;10.766;2023-04-25T01:15:34;4.60;1.00
3701;DHT22;1866;48.374;10.766;2023-04-25T01:18:03;4.60;1.00
3701;DHT22;1866;48.374;10.766;2023-04-25T01:20:32;4.40;1.00
3701;DHT22;1866;48.374;10.766;2023-04-25T01:23:01;4.70;21.40
3701;DHT22;1866;48.374;10.766;2023-04-25T01:25:30;4.70;5.40
3701;DHT22;1866;48.374;10.766;2023-04-25T01:27:57;4.60;1.00
3701;DHT22;1866;48.374;10.766;2023-04-25T01:30:25;4.70;1.00
3701;DHT22;1866;48.374;10.766;2023-04-25T01:32:54;4.80;1.00
3701;DHT22;1866;48.374;10.766;2023-04-25T01:35:22;4.80;1.00
3701;DHT22;1866;48.374;10.766;2023-04-25T01:37:51;4.60;1.00
3701;DHT22;1866;48.374;10.766;2023-04-25T01:40:21;4.70;1.00
3701;DHT22;1866;48.374;10.766;2023-04-25T01:42:48;4.60;1.00
3701;DHT22;1866;48.374;10.766;2023-04-25T01:45:16;4.80;1.00
3701;DHT22;1866;48.374;10.766;2023-04-25T01:47:43;4.80;1.00
3701;DHT22;1866;48.374;10.766;2023-04-25T01:50:15;5.00;1.00
3701;DHT22;1866;48.374;10.766;2023-04-25T01:52:42;5.10;1.00
3701;DHT22;1866;48.374;10.766;2023-04-25T01:55:09;5.10;1.00
3701;DHT22;1866;48.374;10.766;2023-04-25T01:57:37;5.20;1.00
3701;DHT22;1866;48.374;10.766;2023-04-25T02:00:06;5.30;1.00
3701;DHT22;1866;48.374;10.766;2023-04-25T02:02:34;5.40;1.00
3701;DHT22;1866;48.374;10.766;2023-04-25T02:05:01;5.40;1.00
3701;DHT22;1866;48.374;10.766;2023-04-25T02:07:27;5.60;1.00
3701;DHT22;1866;48.374;10.766;2023-04-25T02:09:54;5.60;1.00
3701;DHT22;1866;48.374;10.766;2023-04-25T02:12:21;5.60;1.00
3701;DHT22;1866;48.374;10.766;2023-04-25T02:14:49;5.60;1.00
3701;DHT22;1866;48.374;10.766;2023-04-25T02:17:16;5.70;1.00
3701;DHT22;1866;48.374;10.766;2023-04-25T02:19:43;5.90;1.00
3701;DHT22;1866;48.374;10.766;2023-04-25T02:22:10;5.80;1.00
3701;DHT22;1866;48.374;10.766;2023-04-25T02:24:37;6.10;1.00
3701;DHT22;1866;48.374;10.766;2023-04-25T02:27:04;6.20;1.00
3701;DHT22;1866;48.374;10.766;2023-04-25T02:29:31;6.20;1.00
3701;DHT22;1866;48.374;10.766;2023-04-25T02:31:59;6.30;1.00
3701;DHT22;1866;48.374;10.766;2023-04-25T02:34:26;6.40;1.00
3701;DHT22;1866;48.374;10.766;2023-04-25T02:36:53;6.40;1.00
3701;DHT22;1866;48.374;10.766;2023-04-25T02:39:21;6.40;1.00
3701;DHT22;1866;48.374;10.766;2023-04-25T02:41:51;6.50;1.00
3701;DHT22;1866;48.374;10.766;2023-04-25T02:44:18;6.50;1.00
3701;DHT22;1866;48.374;10.766;2023-04-25T02:46:45;6.60;1.00
3701;DHT22;1866;48.374;10.766;2023-04-25T02:49:13;6.60;1.00
3701;DHT22;1866;48.374;10.766;2023-04-25T02:51:40;6.70;1.00
3701;DHT22;1866;48.374;10.766;2023-04-25T02:54:07;6.70;1.00
3701;DHT22;1866;48.374;10.766;2023-04-25T02:56:34;6.70;1.00
3701;DHT22;1866;48.374;10.766;2023-04-25T02:59:01;6.70;1.00
3701;DHT22;1866;48.374;10.766;2023-04-25T03:01:27;6.70;1.00
3701;DHT22;1866;48.374;10.766;2023-04-25T03:03:54;6.70;1.00
3701;DHT22;1866;48.374;10.766;2023-04-25T03:06:22;6.60;1.00
3701;DHT22;1866;48.374;10.766;2023-04-25T03:08:49;6.60;1.00
3701;DHT22;1866;48.374;10.766;2023-04-25T03:11:16;6.70;1.00
3701;DHT22;1866;48.374;10.766;2023-04-25T03:13:43;6.80;1.00
3701;DHT22;1866;48.374;10.766;2023-04-25T03:16:10;6.80;1.00
3701;DHT22;1866;48.374;10.766;2023-04-25T03:18:36;6.70;1.00
3701;DHT22;1866;48.374;10.766;2023-04-25T03:21:03;6.70;1.00
3701;DHT22;1866;48.374;10.766;2023-04-25T03:23:31;6.70;1.00
3701;DHT22;1866;48.374;10.766;2023-04-25T03:25:59;6.60;1.00
3701;DHT22;1866;48.374;10.766;2023-04-25T03:28:26;6.60;1.00
3701;DHT22;1866;48.374;10.766;2023-04-25T03:30:52;6.60;1.00
3701;DHT22;1866;48.374;10.766;2023-04-25T03:33:19;6.60;1.00
3701;DHT22;1866;48.374;10.766;2023-04-25T03:35:46;6.60;1.00
3701;DHT22;1866;48.374;10.766;2023-04-25T03:38:13;6.60;1.00
3701;DHT22;1866;48.374;10.766;2023-04-25T03:40:41;6.60;1.00
3701;DHT22;1866;48.374;10.766;2023-04-25T03:43:08;6.70;1.00
3701;DHT22;1866;48.374;10.766;2023-04-25T03:45:35;6.60;1.00
3701;DHT22;1866;48.374;10.766;2023-04-25T03:48:02;6.70;1.00
3701;DHT22;1866;48.374;10.766;2023-04-25T03:50:29;6.60;1.00
3701;DHT22;1866;48.374;10.766;2023-04-25T03:52:55;6.60;1.00
3701;DHT22;1866;48.374;10.766;2023-04-25T03:55:22;6.50;1.00
3701;DHT22;1866;48.374;10.766;2023-04-25T03:57:50;6.60;1.00
3701;DHT22;1866;48.374;10.766;2023-04-25T04:00:17;6.60;1.00
3701;DHT22;1866;48.374;10.766;2023-04-25T04:02:44;6.50;1.00
3701;DHT22;1866;48.374;10.766;2023-04-25T04:05:11;6.50;1.00
3701;DHT22;1866;48.374;10.766;2023-04-25T04:07:38;6.50;1.00
3701;DHT22;1866;48.374;10.766;2023-04-25T04:10:08;6.50;1.00
3701;DHT22;1866;48.374;10.766;2023-04-25T04:12:35;6.50;1.00
3701;DHT22;1866;48.374;10.766;2023-04-25T04:15:05;6.60;1.00
3701;DHT22;1866;48.374;10.766;2023-04-25T04:17:32;6.50;1.00
3701;DHT22;1866;48.374;10.766;2023-04-25T04:19:59;6.50;1.00
3701;DHT22;1866;48.374;10.766;2023-04-25T04:22:26;6.40;1.00
3701;DHT22;1866;48.374;10.766;2023-04-25T04:24:53;6.40;1.00
3701;DHT22;1866;48.374;10.766;2023-04-25T04:27:19;6.40;1.00
3701;DHT22;1866;48.374;10.766;2023-04-25T04:29:47;6.40;1.00
3701;DHT22;1866;48.374;10.766;2023-04-25T04:32:15;6.40;1.00
3701;DHT22;1866;48.374;10.766;2023-04-25T04:34:42;6.50;1.00
3701;DHT22;1866;48.374;10.766;2023-04-25T04:37:10;6.50;1.00
3701;DHT22;1866;48.374;10.766;2023-04-25T04:39:38;6.50;1.00
3701;DHT22;1866;48.374;10.766;2023-04-25T04:42:06;6.50;1.00
3701;DHT22;1866;48.374;10.766;2023-04-25T04:44:34;6.50;1.00
3701;DHT22;1866;48.374;10.766;2023-04-25T04:47:00;6.50;1.00
3701;DHT22;1866;48.374;10.766;2023-04-25T04:49:30;6.50;1.00
3701;DHT22;1866;48.374;10.766;2023-04-25T04:51:57;6.50;1.00
3701;DHT22;1866;48.374;10.766;2023-04-25T04:54:25;6.60;1.00
3701;DHT22;1866;48.374;10.766;2023-04-25T04:56:52;6.50;1.00
3701;DHT22;1866;48.374;10.766;2023-04-25T04:59:19;6.50;1.00
3701;DHT22;1866;48.374;10.766;2023-04-25T05:01:46;6.50;1.00
3701;DHT22;1866;48.374;10.766;2023-04-25T05:04:13;6.50;1.00
3701;DHT22;1866;48.374;10.766;2023-04-25T05:06:41;6.50;1.00
3701;DHT22;1866;48.374;10.766;2023-04-25T05:09:09;6.40;1.00
3701;DHT22;1866;48.374;10.766;2023-04-25T05:11:36;6.50;1.00
3701;DHT22;1866;48.374;10.766;2023-04-25T05:14:03;6.50;1.00
3701;DHT22;1866;48.374;10.766;2023-04-25T05:16:30;6.50;1.00
3701;DHT22;1866;48.374;10.766;2023-04-25T05:18:57;6.50;1.00
3701;DHT22;1866;48.374;10.766;2023-04-25T05:21:24;6.50;1.00
3701;DHT22;1866;48.374;10.766;2023-04-25T05:23:52;6.50;1.00
3701;DHT22;1866;48.374;10.766;2023-04-25T05:26:19;6.50;1.00
3701;DHT22;1866;48.374;10.766;2023-04-25T05:28:46;6.60;1.00
3701;DHT22;1866;48.374;10.766;2023-04-25T05:31:13;6.60;1.00
3701;DHT22;1866;48.374;10.766;2023-04-25T05:33:40;6.70;1.00
3701;DHT22;1866;48.374;10.766;2023-04-25T05:36:07;6.70;1.00
3701;DHT22;1866;48.374;10.766;2023-04-25T05:38:34;6.80;1.00
3701;DHT22;1866;48.374;10.766;2023-04-25T05:41:03;7.00;1.00
3701;DHT22;1866;48.374;10.766;2023-04-25T05:43:30;6.80;1.00
3701;DHT22;1866;48.374;10.766;2023-04-25T05:45:57;6.70;1.00
3701;DHT22;1866;48.374;10.766;2023-04-25T05:48:24;6.80;1.00
3701;DHT22;1866;48.374;10.766;2023-04-25T05:50:51;6.80;1.00
3701;DHT22;1866;48.374;10.766;2023-04-25T05:53:18;6.80;1.00
3701;DHT22;1866;48.374;10.766;2023-04-25T05:55:46;6.80;1.00
3701;DHT22;1866;48.374;10.766;2023-04-25T05:58:14;6.80;1.00
3701;DHT22;1866;48.374;10.766;2023-04-25T06:00:41;7.00;1.00
3701;DHT22;1866;48.374;10.766;2023-04-25T06:03:08;7.10;1.00
3701;DHT22;1866;48.374;10.766;2023-04-25T06:05:36;7.20;1.00
3701;DHT22;1866;48.374;10.766;2023-04-25T06:08:03;7.40;1.00
3701;DHT22;1866;48.374;10.766;2023-04-25T06:10:29;7.50;1.00
3701;DHT22;1866;48.374;10.766;2023-04-25T06:12:56;7.90;1.00
3701;DHT22;1866;48.374;10.766;2023-04-25T06:15:24;8.40;1.00
3701;DHT22;1866;48.374;10.766;2023-04-25T06:17:51;8.30;1.00
3701;DHT22;1866;48.374;10.766;2023-04-25T06:20:18;9.00;1.00
3701;DHT22;1866;48.374;10.766;2023-04-25T06:22:48;9.00;1.00
3701;DHT22;1866;48.374;10.766;2023-04-25T06:25:15;8.60;1.00
3701;DHT22;1866;48.374;10.766;2023-04-25T06:27:42;8.50;1.00
3701;DHT22;1866;48.374;10.766;2023-04-25T06:30:10;8.20;1.00
3701;DHT22;1866;48.374;10.766;2023-04-25T06:32:39;8.00;1.00
3701;DHT22;1866;48.374;10.766;2023-04-25T06:35:06;7.80;1.00
3701;DHT22;1866;48.374;10.766;2023-04-25T06:37:33;7.60;1.00
3701;DHT22;1866;48.374;10.766;2023-04-25T06:40:00;7.40;1.00
3701;DHT22;1866;48.374;10.766;2023-04-25T06:42:28;7.40;1.00
3701;DHT22;1866;48.374;10.766;2023-04-25T06:44:54;7.60;1.00
3701;DHT22;1866;48.374;10.766;2023-04-25T06:47:21;7.70;1.00
3701;DHT22;1866;48.374;10.766;2023-04-25T06:49:50;7.80;1.00
3701;DHT22;1866;48.374;10.766;2023-04-25T06:52:17;7.80;1.00
3701;DHT22;1866;48.374;10.766;2023-04-25T06:54:44;7.80;1.00
3701;DHT22;1866;48.374;10.766;2023-04-25T06:57:11;8.00;1.00
3701;DHT22;1866;48.374;10.766;2023-04-25T06:59:38;7.90;1.00
3701;DHT22;1866;48.374;10.766;2023-04-25T07:02:05;8.00;1.00
3701;DHT22;1866;48.374;10.766;2023-04-25T07:04:32;8.20;1.00
3701;DHT22;1866;48.374;10.766;2023-04-25T07:07:00;8.20;1.00
3701;DHT22;1866;48.374;10.766;2023-04-25T07:09:28;8.30;1.00
3701;DHT22;1866;48.374;10.766;2023-04-25T07:11:55;8.40;1.00
3701;DHT22;1866;48.374;10.766;2023-04-25T07:14:22;8.60;1.00
3701;DHT22;1866;48.374;10.766;2023-04-25T07:16:49;9.00;1.00
3701;DHT22;1866;48.374;10.766;2023-04-25T07:19:16;8.80;1.00
3701;DHT22;1866;48.374;10.766;2023-04-25T07:21:43;9.40;1.00
3701;DHT22;1866;48.374;10.766;2023-04-25T07:24:11;9.30;1.00
3701;DHT22;1866;48.374;10.766;2023-04-25T07:26:38;9.00;1.00
3701;DHT22;1866;48.374;10.766;2023-04-25T07:29:04;9.20;1.00
3701;DHT22;1866;48.374;10.766;2023-04-25T07:31:31;9.40;1.00
3701;DHT22;1866;48.374;10.766;2023-04-25T07:33:58;9.70;1.00
3701;DHT22;1866;48.374;10.766;2023-04-25T07:36:25;9.90;1.00
3701;DHT22;1866;48.374;10.766;2023-04-25T07:38:52;9.80;1.00
3701;DHT22;1866;48.374;10.766;2023-04-25T07:41:20;9.40;1.00
3701;DHT22;1866;48.374;10.766;2023-04-25T07:43:47;9.70;1.00
3701;DHT22;1866;48.374;10.766;2023-04-25T07:46:14;9.80;1.00
3701;DHT22;1866;48.374;10.766;2023-04-25T07:48:41;10.00;1.00
3701;DHT22;1866;48.374;10.766;2023-04-25T07:51:08;9.30;1.00
3701;DHT22;1866;48.374;10.766;2023-04-25T07:53:34;9.50;1.00
3701;DHT22;1866;48.374;10.766;2023-04-25T07:56:03;9.90;1.00
3701;DHT22;1866;48.374;10.766;2023-04-25T07:58:31;10.90;1.00
3701;DHT22;1866;48.374;10.766;2023-04-25T08:00:58;10.80;1.00
3701;DHT22;1866;48.374;10.766;2023-04-25T08:03:25;10.50;1.00
3701;DHT22;1866;48.374;10.766;2023-04-25T08:05:51;10.50;1.00
3701;DHT22;1866;48.374;10.766;2023-04-25T08:08:18;10.20;1.00
3701;DHT22;1866;48.374;10.766;2023-04-25T08:10:45;10.30;1.00
3701;DHT22;1866;48.374;10.766;2023-04-25T08:13:13;10.00;1.00
3701;DHT22;1866;48.374;10.766;2023-04-25T08:15:41;9.90;1.00
3701;DHT22;1866;48.374;10.766;2023-04-25T08:18:08;10.00;1.00
3701;DHT22;1866;48.374;10.766;2023-04-25T08:20:35;10.50;1.00
3701;DHT22;1866;48.374;10.766;2023-04-25T08:23:02;11.10;1.00
3701;DHT22;1866;48.374;10.766;2023-04-25T08:25:29;10.50;1.00
3701;DHT22;1866;48.374;10.766;2023-04-25T08:27:55;10.30;1.00
3701;DHT22;1866;48.374;10.766;2023-04-25T08:30:22;10.20;1.00
3701;DHT22;1866;48.374;10.766;2023-04-25T08:32:50;10.40;1.00
3701;DHT22;1866;48.374;10.766;2023-04-25T08:35:18;10.30;1.00
3701;DHT22;1866;48.374;10.766;2023-04-25T08:37:44;10.30;1.00
3701;DHT22;1866;48.374;10.766;2023-04-25T08:40:13;10.60;1.00
3701;DHT22;1866;48.374;10.766;2023-04-25T08:42:41;10.70;1.00
3701;DHT22;1866;48.374;10.766;2023-04-25T08:45:09;10.30;1.00
3701;DHT22;1866;48.374;10.766;2023-04-25T08:47:37;10.20;1.00
3701;DHT22;1866;48.374;10.766;2023-04-25T08:50:06;10.30;1.00
3701;DHT22;1866;48.374;10.766;2023-04-25T08:52:37;10.50;1.00
3701;DHT22;1866;48.374;10.766;2023-04-25T08:55:05;10.30;1.00
3701;DHT22;1866;48.374;10.766;2023-04-25T08:57:34;10.20;1.00
3701;DHT22;1866;48.374;10.766;2023-04-25T09:00:02;10.20;1.00
3701;DHT22;1866;48.374;10.766;2023-04-25T09:02:31;10.40;1.00
3701;DHT22;1866;48.374;10.766;2023-04-25T09:04:58;10.20;1.00
3701;DHT22;1866;48.374;10.766;2023-04-25T09:07:27;10.10;1.00
3701;DHT22;1866;48.374;10.766;2023-04-25T09:09:54;10.20;1.00
3701;DHT22;1866;48.374;10.766;2023-04-25T09:12:21;10.50;1.00
3701;DHT22;1866;48.374;10.766;2023-04-25T09:15:03;10.60;1.00
3701;DHT22;1866;48.374;10.766;2023-04-25T09:17:31;10.40;1.00
3701;DHT22;1866;48.374;10.766;2023-04-25T09:20:06;10.20;1.00
3701;DHT22;1866;48.374;10.766;2023-04-25T09:22:36;10.20;1.00
3701;DHT22;1866;48.374;10.766;2023-04-25T09:25:07;9.90;1.00
3701;DHT22;1866;48.374;10.766;2023-04-25T09:27:34;10.00;1.00
3701;DHT22;1866;48.374;10.766;2023-04-25T09:30:02;10.30;1.00
3701;DHT22;1866;48.374;10.766;2023-04-25T09:32:29;10.40;1.00
3701;DHT22;1866;48.374;10.766;2023-04-25T09:34:56;10.50;1.00
3701;DHT22;1866;48.374;10.766;2023-04-25T09:37:25;9.90;1.00
3701;DHT22;1866;48.374;10.766;2023-04-25T09:39:56;9.90;1.00
3701;DHT22;1866;48.374;10.766;2023-04-25T09:42:25;9.60;1.00
3701;DHT22;1866;48.374;10.766;2023-04-25T09:44:55;9.60;1.00
3701;DHT22;1866;48.374;10.766;2023-04-25T09:47:23;9.50;1.00
3701;DHT22;1866;48.374;10.766;2023-04-25T09:49:51;8.70;1.00
3701;DHT22;1866;48.374;10.766;2023-04-25T09:52:19;7.90;1.00
3701;DHT22;1866;48.374;10.766;2023-04-25T09:54:46;7.40;1.00
3701;DHT22;1866;48.374;10.766;2023-04-25T09:57:16;7.30;1.00
3701;DHT22;1866;48.374;10.766;2023-04-25T09:59:44;7.40;1.00
3701;DHT22;1866;48.374;10.766;2023-04-25T10:02:13;7.40;1.00
3701;DHT22;1866;48.374;10.766;2023-04-25T10:04:41;7.40;1.00
3701;DHT22;1866;48.374;10.766;2023-04-25T10:07:08;7.50;1.00
3701;DHT22;1866;48.374;10.766;2023-04-25T10:09:38;7.70;1.00
3701;DHT22;1866;48.374;10.766;2023-04-25T10:12:07;7.90;1.00
3701;DHT22;1866;48.374;10.766;2023-04-25T10:14:35;8.00;1.00
3701;DHT22;1866;48.374;10.766;2023-04-25T10:17:02;7.90;1.00
3701;DHT22;1866;48.374;10.766;2023-04-25T10:19:30;8.20;1.00
3701;DHT22;1866;48.374;10.766;2023-04-25T10:22:04;8.30;1.00
3701;DHT22;1866;48.374;10.766;2023-04-25T10:24:32;8.40;1.00
3701;DHT22;1866;48.374;10.766;2023-04-25T10:27:00;8.60;1.00
3701;DHT22;1866;48.374;10.766;2023-04-25T10:29:27;8.70;1.00
3701;DHT22;1866;48.374;10.766;2023-04-25T10:31:57;8.80;1.00
3701;DHT22;1866;48.374;10.766;2023-04-25T10:34:24;9.00;1.00
3701;DHT22;1866;48.374;10.766;2023-04-25T10:36:52;9.30;1.00
3701;DHT22;1866;48.374;10.766;2023-04-25T10:39:24;9.20;1.00
3701;DHT22;1866;48.374;10.766;2023-04-25T10:41:55;9.20;1.00
3701;DHT22;1866;48.374;10.766;2023-04-25T10:44:22;9.50;1.00
3701;DHT22;1866;48.374;10.766;2023-04-25T10:46:49;9.70;1.00
3701;DHT22;1866;48.374;10.766;2023-04-25T10:49:31;9.50;1.00
3701;DHT22;1866;48.374;10.766;2023-04-25T10:52:18;9.30;1.00
3701;DHT22;1866;48.374;10.766;2023-04-25T10:54:52;9.30;1.00
3701;DHT22;1866;48.374;10.766;2023-04-25T10:57:30;9.50;1.00
3701;DHT22;1866;48.374;10.766;2023-04-25T11:00:01;9.70;1.00
3701;DHT22;1866;48.374;10.766;2023-04-25T11:02:32;9.70;1.00
3701;DHT22;1866;48.374;10.766;2023-04-25T11:05:05;10.20;1.00
3701;DHT22;1866;48.374;10.766;2023-04-25T11:07:37;10.10;1.00
3701;DHT22;1866;48.374;10.766;2023-04-25T11:10:05;10.40;1.00
3701;DHT22;1866;48.374;10.766;2023-04-25T11:12:32;10.30;1.00
3701;DHT22;1866;48.374;10.766;2023-04-25T11:15:01;10.20;1.00
3701;DHT22;1866;48.374;10.766;2023-04-25T11:17:29;10.10;1.00
3701;DHT22;1866;48.374;10.766;2023-04-25T11:19:56;10.00;1.00
3701;DHT22;1866;48.374;10.766;2023-04-25T11:22:24;10.00;1.00
3701;DHT22;1866;48.374;10.766;2023-04-25T11:24:53;9.10;1.00
3701;DHT22;1866;48.374;10.766;2023-04-25T11:27:20;8.70;1.00
3701;DHT22;1866;48.374;10.766;2023-04-25T11:29:50;8.30;1.00
3701;DHT22;1866;48.374;10.766;2023-04-25T11:32:17;8.20;1.00
3701;DHT22;1866;48.374;10.766;2023-04-25T11:34:45;8.20;1.00
3701;DHT22;1866;48.374;10.766;2023-04-25T11:37:11;7.80;1.00
3701;DHT22;1866;48.374;10.766;2023-04-25T11:39:43;7.40;1.00
3701;DHT22;1866;48.374;10.766;2023-04-25T11:42:11;7.40;1.00
3701;DHT22;1866;48.374;10.766;2023-04-25T11:44:38;6.90;1.00
3701;DHT22;1866;48.374;10.766;2023-04-25T11:47:05;6.90;1.00
3701;DHT22;1866;48.374;10.766;2023-04-25T11:49:32;6.70;5.20
3701;DHT22;1866;48.374;10.766;2023-04-25T11:52:00;6.80;31.00
3701;DHT22;1866;48.374;10.766;2023-04-25T11:54:27;6.60;34.10
3701;DHT22;1866;48.374;10.766;2023-04-25T11:56:55;6.80;99.90
3701;DHT22;1866;48.374;10.766;2023-04-25T11:59:24;6.80;96.40
3701;DHT22;1866;48.374;10.766;2023-04-25T12:01:51;6.70;41.60
3701;DHT22;1866;48.374;10.766;2023-04-25T12:04:20;6.70;87.30
3701;DHT22;1866;48.374;10.766;2023-04-25T12:06:49;6.90;96.90
3701;DHT22;1866;48.374;10.766;2023-04-25T12:09:18;6.80;95.60
3701;DHT22;1866;48.374;10.766;2023-04-25T12:11:48;6.80;99.90
3701;DHT22;1866;48.374;10.766;2023-04-25T12:14:23;6.80;77.40
3701;DHT22;1866;48.374;10.766;2023-04-25T12:16:50;6.80;85.10
3701;DHT22;1866;48.374;10.766;2023-04-25T12:19:20;6.50;30.30
3701;DHT22;1866;48.374;10.766;2023-04-25T12:21:48;6.40;3.80
3701;DHT22;1866;48.374;10.766;2023-04-25T12:24:16;6.30;12.80
3701;DHT22;1866;48.374;10.766;2023-04-25T12:26:51;6.30;22.70
3701;DHT22;1866;48.374;10.766;2023-04-25T12:29:21;6.50;79.00
3701;DHT22;1866;48.374;10.766;2023-04-25T12:31:49;6.20;1.00
3701;DHT22;1866;48.374;10.766;2023-04-25T12:34:16;6.30;8.90
3701;DHT22;1866;48.374;10.766;2023-04-25T12:36:43;6.40;28.70
3701;DHT22;1866;48.374;10.766;2023-04-25T12:39:14;6.50;34.50
3701;DHT22;1866;48.374;10.766;2023-04-25T12:41:42;6.40;63.20
3701;DHT22;1866;48.374;10.766;2023-04-25T12:44:10;6.60;98.70
3701;DHT22;1866;48.374;10.766;2023-04-25T12:46:38;6.80;95.40
3701;DHT22;1866;48.374;10.766;2023-04-25T12:49:06;6.80;66.40
3701;DHT22;1866;48.374;10.766;2023-04-25T12:51:34;6.80;90.10
3701;DHT22;1866;48.374;10.766;2023-04-25T12:54:01;6.80;76.40
3701;DHT22;1866;48.374;10.766;2023-04-25T12:56:28;7.00;73.80
3701;DHT22;1866;48.374;10.766;2023-04-25T12:58:55;7.00;50.20
3701;DHT22;1866;48.374;10.766;2023-04-25T13:01:23;7.10;42.10
3701;DHT22;1866;48.374;10.766;2023-04-25T13:03:51;7.20;54.20
3701;DHT22;1866;48.374;10.766;2023-04-25T13:06:19;7.20;10.80
3701;DHT22;1866;48.374;10.766;2023-04-25T13:08:46;7.20;1.00
3701;DHT22;1866;48.374;10.766;2023-04-25T13:11:13;7.40;25.60
3701;DHT22;1866;48.374;10.766;2023-04-25T13:13:41;7.40;46.20
3701;DHT22;1866;48.374;10.766;2023-04-25T13:16:08;7.40;64.40
3701;DHT22;1866;48.374;10.766;2023-04-25T13:18:35;7.40;99.90
3701;DHT22;1866;48.374;10.766;2023-04-25T13:21:04;7.20;38.90
3701;DHT22;1866;48.374;10.766;2023-04-25T13:23:31;7.50;98.20
3701;DHT22;1866;48.374;10.766;2023-04-25T13:25:58;7.50;99.90
3701;DHT22;1866;48.374;10.766;2023-04-25T13:28:27;7.20;61.40
3701;DHT22;1866;48.374;10.766;2023-04-25T13:30:54;7.60;99.90
3701;DHT22;1866;48.374;10.766;2023-04-25T13:33:21;7.70;98.70
3701;DHT22;1866;48.374;10.766;2023-04-25T13:35:49;8.10;99.90
3701;DHT22;1866;48.374;10.766;2023-04-25T13:38:21;7.70;75.10
3701;DHT22;1866;48.374;10.766;2023-04-25T13:40:48;7.70;74.50
3701;DHT22;1866;48.374;10.766;2023-04-25T13:43:19;7.50;38.40
3701;DHT22;1866;48.374;10.766;2023-04-25T13:45:46;7.40;59.60
3701;DHT22;1866;48.374;10.766;2023-04-25T13:48:13;7.30;65.90
3701;DHT22;1866;48.374;10.766;2023-04-25T13:50:40;7.20;94.60
3701;DHT22;1866;48.374;10.766;2023-04-25T13:53:07;7.50;99.90
3701;DHT22;1866;48.374;10.766;2023-04-25T13:55:35;7.20;64.00
3701;DHT22;1866;48.374;10.766;2023-04-25T13:58:03;7.30;99.20
3701;DHT22;1866;48.374;10.766;2023-04-25T14:00:34;7.30;51.60
3701;DHT22;1866;48.374;10.766;2023-04-25T14:03:00;7.30;21.20
3701;DHT22;1866;48.374;10.766;2023-04-25T14:05:30;7.30;88.10
3701;DHT22;1866;48.374;10.766;2023-04-25T14:07:58;7.30;25.80
3701;DHT22;1866;48.374;10.766;2023-04-25T14:10:25;7.80;99.90
3701;DHT22;1866;48.374;10.766;2023-04-25T14:12:53;7.50;98.10
3701;DHT22;1866;48.374;10.766;2023-04-25T14:15:20;7.70;99.90
3701;DHT22;1866;48.374;10.766;2023-04-25T14:17:47;7.40;77.90
3701;DHT22;1866;48.374;10.766;2023-04-25T14:20:14;7.60;99.90
3701;DHT22;1866;48.374;10.766;2023-04-25T14:22:41;7.60;99.90
3701;DHT22;1866;48.374;10.766;2023-04-25T14:25:09;7.90;99.90
3701;DHT22;1866;48.374;10.766;2023-04-25T14:27:36;8.00;99.90
3701;DHT22;1866;48.374;10.766;2023-04-25T14:30:05;8.30;99.90
3701;DHT22;1866;48.374;10.766;2023-04-25T14:32:34;8.10;11.30
3701;DHT22;1866;48.374;10.766;2023-04-25T14:35:01;7.80;1.00
3701;DHT22;1866;48.374;10.766;2023-04-25T14:37:28;7.90;3.60
3701;DHT22;1866;48.374;10.766;2023-04-25T14:39:55;7.80;1.00
3701;DHT22;1866;48.374;10.766;2023-04-25T14:42:21;7.60;1.00
3701;DHT22;1866;48.374;10.766;2023-04-25T14:44:48;7.80;1.00
3701;DHT22;1866;48.374;10.766;2023-04-25T14:47:17;7.50;1.00
3701;DHT22;1866;48.374;10.766;2023-04-25T14:49:44;7.70;26.30
3701;DHT22;1866;48.374;10.766;2023-04-25T14:52:16;7.70;4.20
3701;DHT22;1866;48.374;10.766;2023-04-25T14:54:43;7.80;19.00
3701;DHT22;1866;48.374;10.766;2023-04-25T14:57:10;7.80;8.80
3701;DHT22;1866;48.374;10.766;2023-04-25T14:59:37;8.20;36.50
3701;DHT22;1866;48.374;10.766;2023-04-25T15:02:04;8.30;19.30
3701;DHT22;1866;48.374;10.766;2023-04-25T15:04:32;8.30;19.70
3701;DHT22;1866;48.374;10.766;2023-04-25T15:06:59;8.50;59.10
3701;DHT22;1866;48.374;10.766;2023-04-25T15:09:26;8.20;14.20
3701;DHT22;1866;48.374;10.766;2023-04-25T15:11:53;8.10;32.50
3701;DHT22;1866;48.374;10.766;2023-04-25T15:14:20;8.30;36.40
3701;DHT22;1866;48.374;10.766;2023-04-25T15:16:47;8.30;41.00
3701;DHT22;1866;48.374;10.766;2023-04-25T15:19:14;8.40;17.80
3701;DHT22;1866;48.374;10.766;2023-04-25T15:21:43;8.10;1.00
3701;DHT22;1866;48.374;10.766;2023-04-25T15:24:10;8.40;1.00
3701;DHT22;1866;48.374;10.766;2023-04-25T15:26:37;8.30;1.00
3701;DHT22;1866;48.374;10.766;2023-04-25T15:29:04;8.70;1.00
3701;DHT22;1866;48.374;10.766;2023-04-25T15:31:32;8.80;1.00
3701;DHT22;1866;48.374;10.766;2023-04-25T15:33:58;8.90;1.00
3701;DHT22;1866;48.374;10.766;2023-04-25T15:36:25;8.80;1.00
3701;DHT22;1866;48.374;10.766;2023-04-25T15:38:54;8.60;1.00
3701;DHT22;1866;48.374;10.766;2023-04-25T15:41:21;9.00;1.00
3701;DHT22;1866;48.374;10.766;2023-04-25T15:43:48;9.40;1.00
3701;DHT22;1866;48.374;10.766;2023-04-25T15:46:14;9.20;1.00
3701;DHT22;1866;48.374;10.766;2023-04-25T15:48:41;9.30;1.00
3701;DHT22;1866;48.374;10.766;2023-04-25T15:51:08;9.10;1.00
3701;DHT22;1866;48.374;10.766;2023-04-25T15:53:35;9.30;1.00
3701;DHT22;1866;48.374;10.766;2023-04-25T15:56:04;9.00;1.00
3701;DHT22;1866;48.374;10.766;2023-04-25T15:58:31;9.00;1.00
3701;DHT22;1866;48.374;10.766;2023-04-25T16:00:57;9.10;1.00
3701;DHT22;1866;48.374;10.766;2023-04-25T16:03:24;9.00;1.00
3701;DHT22;1866;48.374;10.766;2023-04-25T16:05:51;9.10;1.00
3701;DHT22;1866;48.374;10.766;2023-04-25T16:08:18;8.80;1.00
3701;DHT22;1866;48.374;10.766;2023-04-25T16:10:45;9.00;1.00
3701;DHT22;1866;48.374;10.766;2023-04-25T16:13:14;9.10;1.00
3701;DHT22;1866;48.374;10.766;2023-04-25T16:15:41;9.00;1.00